createdAt,value
2023-04-27T00:01:27.849Z,98302.25
2023-04-27T00:03:55.009Z,98295.19
2023-04-27T00:06:22.101Z,98306.66
2023-04-27T00:08:49.048Z,98310.38
2023-04-27T00:11:16.052Z,98310.56
2023-04-27T00:13:42.947Z,98314.34
2023-04-27T00:16:09.943Z,98312.75
2023-04-27T00:18:38.246Z,98313.97
2023-04-27T00:21:05.257Z,98309.25
2023-04-27T00:23:32.222Z,98310.47
2023-04-27T00:25:59.118Z,98318.56
2023-04-27T00:28:26.187Z,98314.44
2023-04-27T00:30:54.659Z,98316.22
2023-04-27T00:33:21.701Z,98318.97
2023-04-27T00:35:50.058Z,98316.63
2023-04-27T00:38:17.008Z,98321.38
2023-04-27T00:40:44.063Z,98330.06
2023-04-27T00:43:11.141Z,98330.50
2023-04-27T00:45:42.958Z,98327.34
2023-04-27T00:48:11.077Z,98323.78
2023-04-27T00:50:38.886Z,98334.81
2023-04-27T00:53:07.975Z,98338.34
2023-04-27T00:55:35.064Z,98347.78
2023-04-27T00:58:02.747Z,98349.28
2023-04-27T01:00:29.783Z,98343.94
2023-04-27T01:02:57.142Z,98342.31
2023-04-27T01:05:25.559Z,98351.38
2023-04-27T01:07:52.596Z,98346.81
2023-04-27T01:10:22.027Z,98354.69
2023-04-27T01:12:49.040Z,98355.47
2023-04-27T01:15:15.992Z,98347.59
2023-04-27T01:17:43.746Z,98353.53
2023-04-27T01:20:11.848Z,98357.09
2023-04-27T01:22:39.720Z,98361.22
2023-04-27T01:25:08.909Z,98357.84
2023-04-27T01:27:35.837Z,98364.59
2023-04-27T01:30:04.402Z,98366.50
2023-04-27T01:32:31.341Z,98372.03
2023-04-27T01:34:58.300Z,98373.97
2023-04-27T01:37:27.228Z,98378.91
2023-04-27T01:39:54.176Z,98373.56
2023-04-27T01:42:22.546Z,98375.19
2023-04-27T01:44:49.526Z,98379.19
2023-04-27T01:47:19.464Z,98383.91
2023-04-27T01:49:46.420Z,98381.13
2023-04-27T01:52:13.327Z,98391.41
2023-04-27T01:54:40.238Z,98389.41
2023-04-27T01:57:07.132Z,98389.78
2023-04-27T01:59:35.471Z,98381.09
2023-04-27T02:02:02.445Z,98394.72
2023-04-27T02:04:30.290Z,98395.13
2023-04-27T02:06:58.192Z,98395.13
2023-04-27T02:09:25.151Z,98394.13
2023-04-27T02:11:52.124Z,98397.28
2023-04-27T02:14:19.250Z,98397.84
2023-04-27T02:16:48.650Z,98401.00
2023-04-27T02:19:16.522Z,98401.78
2023-04-27T02:21:44.133Z,98403.97
2023-04-27T02:24:11.585Z,98404.78
2023-04-27T02:26:38.544Z,98399.66
2023-04-27T02:29:05.522Z,98399.66
2023-04-27T02:31:33.089Z,98405.59
2023-04-27T02:34:01.556Z,98411.31
2023-04-27T02:36:28.452Z,98423.34
2023-04-27T02:38:55.708Z,98421.19
2023-04-27T02:41:22.693Z,98425.31
2023-04-27T02:43:51.375Z,98422.97
2023-04-27T02:46:18.382Z,98423.97
2023-04-27T02:48:45.345Z,98427.94
2023-04-27T02:51:13.752Z,98423.84
2023-04-27T02:53:41.061Z,98429.75
2023-04-27T02:56:08.056Z,98429.16
2023-04-27T02:58:35.212Z,98433.53
2023-04-27T03:01:02.662Z,98449.50
2023-04-27T03:03:29.783Z,98444.16
2023-04-27T03:05:56.781Z,98447.31
2023-04-27T03:08:25.186Z,98446.31
2023-04-27T03:10:52.085Z,98449.69
2023-04-27T03:13:19.157Z,98458.59
2023-04-27T03:15:46.356Z,98462.91
2023-04-27T03:18:13.262Z,98477.31
2023-04-27T03:20:41.437Z,98480.69
2023-04-27T03:23:08.333Z,98481.44
2023-04-27T03:25:36.923Z,98481.44
2023-04-27T03:28:04.178Z,98488.56
2023-04-27T03:30:31.170Z,98484.44
2023-04-27T03:32:58.474Z,98494.13
2023-04-27T03:35:25.610Z,98494.91
2023-04-27T03:37:55.491Z,98493.91
2023-04-27T03:40:22.692Z,98494.50
2023-04-27T03:42:51.058Z,98496.84
2023-04-27T03:45:19.268Z,98500.00
2023-04-27T03:47:46.319Z,98502.56
2023-04-27T03:50:15.101Z,98502.16
2023-04-27T03:52:42.150Z,98501.16
2023-04-27T03:55:09.640Z,98507.88
2023-04-27T03:57:36.845Z,98501.75
2023-04-27T04:00:12.170Z,98507.66
2023-04-27T04:02:42.360Z,98512.38
2023-04-27T04:05:09.580Z,98512.38
2023-04-27T04:07:36.738Z,98510.22
2023-04-27T04:10:04.336Z,98523.59
2023-04-27T04:12:31.279Z,98522.44
2023-04-27T04:14:58.188Z,98533.88
2023-04-27T04:17:30.215Z,98524.75
2023-04-27T04:19:57.128Z,98530.47
2023-04-27T04:22:24.038Z,98527.69
2023-04-27T04:24:51.510Z,98531.03
2023-04-27T04:27:18.569Z,98534.41
2023-04-27T04:29:45.799Z,98527.28
2023-04-27T04:32:17.798Z,98534.97
2023-04-27T04:34:51.182Z,98531.44
2023-04-27T04:37:19.786Z,98533.22
2023-04-27T04:39:47.067Z,98533.81
2023-04-27T04:42:14.447Z,98527.81
2023-04-27T04:44:42.172Z,98530.19
2023-04-27T04:47:10.201Z,98528.03
2023-04-27T04:49:37.248Z,98519.97
2023-04-27T04:52:06.922Z,98528.63
2023-04-27T04:54:33.873Z,98541.63
2023-04-27T04:57:02.330Z,98543.78
2023-04-27T04:59:33.346Z,98540.38
2023-04-27T05:02:00.432Z,98546.69
2023-04-27T05:04:27.613Z,98549.63
2023-04-27T05:06:54.616Z,98547.84
2023-04-27T05:09:22.942Z,98549.22
2023-04-27T05:11:49.895Z,98547.41
2023-04-27T05:14:16.879Z,98548.78
2023-04-27T05:16:43.900Z,98553.31
2023-04-27T05:19:10.991Z,98548.16
2023-04-27T05:21:38.469Z,98552.13
2023-04-27T05:24:06.416Z,98550.72
2023-04-27T05:26:34.704Z,98553.84
2023-04-27T05:29:01.802Z,98543.34
2023-04-27T05:31:28.782Z,98563.53
2023-04-27T05:33:56.036Z,98555.19
2023-04-27T05:36:22.924Z,98552.22
2023-04-27T05:38:50.266Z,98554.56
2023-04-27T05:41:17.251Z,98562.84
2023-04-27T05:43:46.122Z,98553.97
2023-04-27T05:46:14.700Z,98552.75
2023-04-27T05:48:41.965Z,98549.16
2023-04-27T05:51:08.953Z,98553.16
2023-04-27T05:53:36.054Z,98555.53
2023-04-27T05:56:04.541Z,98552.75
2023-04-27T05:58:31.801Z,98566.56
2023-04-27T06:01:00.693Z,98562.44
2023-04-27T06:03:27.742Z,98566.56
2023-04-27T06:05:58.592Z,98569.00
2023-04-27T06:08:26.261Z,98560.34
2023-04-27T06:10:53.788Z,98557.75
2023-04-27T06:13:21.107Z,98556.00
2023-04-27T06:15:48.149Z,98565.31
2023-04-27T06:18:16.778Z,98557.59
2023-04-27T06:20:43.812Z,98559.78
2023-04-27T06:23:11.150Z,98558.81
2023-04-27T06:25:40.376Z,98557.63
2023-04-27T06:28:07.464Z,98563.56
2023-04-27T06:30:34.509Z,98562.75
2023-04-27T06:33:01.693Z,98566.69
2023-04-27T06:35:30.059Z,98555.19
2023-04-27T06:37:58.879Z,98566.28
2023-04-27T06:40:26.235Z,98571.56
2023-04-27T06:42:53.230Z,98578.28
2023-04-27T06:45:20.222Z,98572.09
2023-04-27T06:47:47.164Z,98574.41
2023-04-27T06:50:15.901Z,98580.66
2023-04-27T06:52:44.243Z,98576.25
2023-04-27T06:55:11.224Z,98585.69
2023-04-27T06:57:38.207Z,98574.53
2023-04-27T07:00:09.284Z,98576.84
2023-04-27T07:02:36.828Z,98581.28
2023-04-27T07:05:04.194Z,98579.03
2023-04-27T07:07:31.121Z,98578.09
2023-04-27T07:09:59.491Z,98585.94
2023-04-27T07:12:27.013Z,98581.38
2023-04-27T07:14:54.548Z,98574.16
2023-04-27T07:17:21.666Z,98575.47
2023-04-27T07:19:48.615Z,98587.81
2023-04-27T07:22:18.233Z,98580.03
2023-04-27T07:24:45.336Z,98587.00
2023-04-27T07:27:15.069Z,98588.78
2023-04-27T07:29:42.421Z,98585.56
2023-04-27T07:32:09.616Z,98592.75
2023-04-27T07:34:49.054Z,98590.19
2023-04-27T07:37:20.534Z,98587.91
2023-04-27T07:39:49.067Z,98589.88
2023-04-27T07:42:17.477Z,98585.13
2023-04-27T07:44:44.487Z,98589.84
2023-04-27T07:47:11.420Z,98577.28
2023-04-27T07:49:40.329Z,98586.47
2023-04-27T07:52:07.395Z,98581.53
2023-04-27T07:54:35.330Z,98597.59
2023-04-27T07:57:02.542Z,98597.69
2023-04-27T07:59:30.922Z,98595.59
2023-04-27T08:02:15.036Z,98596.03
2023-04-27T08:04:45.202Z,98610.47
2023-04-27T08:07:12.904Z,98600.81
2023-04-27T08:09:39.983Z,98608.38
2023-04-27T08:12:07.176Z,98599.88
2023-04-27T08:14:36.217Z,98607.84
2023-04-27T08:17:03.322Z,98605.53
2023-04-27T08:19:30.467Z,98597.47
2023-04-27T08:21:57.389Z,98599.25
2023-04-27T08:24:24.316Z,98603.28
2023-04-27T08:26:51.404Z,98607.09
2023-04-27T08:29:26.800Z,98608.22
2023-04-27T08:31:59.594Z,98602.53
2023-04-27T08:34:27.126Z,98615.16
2023-04-27T08:36:54.488Z,98606.91
2023-04-27T08:39:21.767Z,98600.44
2023-04-27T08:41:48.699Z,98603.25
2023-04-27T08:44:16.141Z,98597.13
2023-04-27T08:46:43.131Z,98605.69
2023-04-27T08:49:12.346Z,98607.59
2023-04-27T08:51:41.891Z,98600.41
2023-04-27T08:54:09.081Z,98597.16
2023-04-27T08:56:36.614Z,98594.81
2023-04-27T08:59:04.576Z,98596.28
2023-04-27T09:01:34.104Z,98596.41
2023-04-27T09:06:36.418Z,98594.28
2023-04-27T09:09:04.218Z,98597.31
2023-04-27T09:11:32.652Z,98593.84
2023-04-27T09:14:03.868Z,98594.16
2023-04-27T09:16:31.610Z,98594.94
2023-04-27T09:18:59.357Z,98600.44
2023-04-27T09:21:27.869Z,98600.19
2023-04-27T09:23:57.063Z,98594.03
2023-04-27T09:26:26.000Z,98596.06
2023-04-27T09:28:54.749Z,98593.69
2023-04-27T09:31:22.844Z,98596.28
2023-04-27T09:33:55.962Z,98593.91
2023-04-27T09:36:23.748Z,98598.09
2023-04-27T09:38:52.334Z,98590.38
2023-04-27T09:41:21.722Z,98593.63
2023-04-27T09:43:49.659Z,98592.03
2023-04-27T09:46:16.745Z,98586.41
2023-04-27T09:48:43.670Z,98583.16
2023-04-27T09:51:10.659Z,98583.81
2023-04-27T09:53:41.101Z,98591.69
2023-04-27T09:56:21.127Z,98585.81
2023-04-27T09:59:26.960Z,98581.78
2023-04-27T10:01:57.341Z,98582.00
2023-04-27T10:04:45.923Z,98585.81
2023-04-27T10:07:16.166Z,98590.53
2023-04-27T10:09:48.744Z,98588.28
2023-04-27T10:12:18.228Z,98582.34
2023-04-27T10:14:53.923Z,98589.84
2023-04-27T10:17:26.568Z,98587.69
2023-04-27T10:19:58.243Z,98588.13
2023-04-27T10:22:38.816Z,98587.22
2023-04-27T10:25:14.237Z,98590.69
2023-04-27T10:27:41.275Z,98596.16
2023-04-27T10:30:12.170Z,98595.25
2023-04-27T10:32:51.534Z,98591.41
2023-04-27T10:35:20.979Z,98596.91
2023-04-27T10:37:48.246Z,98602.06
2023-04-27T10:40:17.696Z,98595.25
2023-04-27T10:42:46.047Z,98607.44
2023-04-27T10:45:14.325Z,98598.41
2023-04-27T10:47:42.451Z,98594.16
2023-04-27T10:50:19.335Z,98605.94
2023-04-27T10:52:46.858Z,98602.28
2023-04-27T10:55:15.900Z,98597.06
2023-04-27T10:57:49.526Z,98594.47
2023-04-27T11:00:23.981Z,98597.78
2023-04-27T11:02:54.830Z,98592.75
2023-04-27T11:05:24.928Z,98591.03
2023-04-27T11:07:52.588Z,98598.59
2023-04-27T11:10:20.517Z,98599.47
2023-04-27T11:12:47.790Z,98603.13
2023-04-27T11:15:14.823Z,98606.28
2023-04-27T11:17:44.453Z,98587.56
2023-04-27T11:20:11.513Z,98585.94
2023-04-27T11:22:46.253Z,98585.94
2023-04-27T11:25:13.693Z,98586.06
2023-04-27T11:27:41.882Z,98584.56
2023-04-27T11:30:21.441Z,98585.63
2023-04-27T11:32:50.742Z,98575.38
2023-04-27T11:35:18.496Z,98574.72
2023-04-27T11:37:45.603Z,98585.56
2023-04-27T11:40:14.262Z,98582.97
2023-04-27T11:42:43.627Z,98580.88
2023-04-27T11:45:12.262Z,98576.84
2023-04-27T11:47:41.151Z,98577.59
2023-04-27T11:50:10.614Z,98584.06
2023-04-27T11:52:40.160Z,98590.59
2023-04-27T11:55:10.806Z,98581.09
2023-04-27T11:57:39.170Z,98580.38
2023-04-27T12:00:11.130Z,98585.56
2023-04-27T12:02:42.150Z,98580.94
2023-04-27T12:05:13.538Z,98578.09
2023-04-27T12:07:41.398Z,98575.25
2023-04-27T12:10:09.281Z,98572.19
2023-04-27T12:12:36.415Z,98577.84
2023-04-27T12:15:03.738Z,98576.94
2023-04-27T12:17:31.224Z,98579.50
2023-04-27T12:19:58.253Z,98578.78
2023-04-27T12:22:26.974Z,98575.28
2023-04-27T12:24:53.915Z,98573.19
2023-04-27T12:27:20.863Z,98577.06
2023-04-27T12:29:47.841Z,98578.94
2023-04-27T12:32:14.868Z,98571.75
2023-04-27T12:34:42.937Z,98569.88
2023-04-27T12:37:09.879Z,98578.34
2023-04-27T12:39:38.671Z,98570.94
2023-04-27T12:42:05.649Z,98569.31
2023-04-27T12:44:32.719Z,98565.25
2023-04-27T12:46:59.806Z,98558.00
2023-04-27T12:49:26.860Z,98548.84
2023-04-27T12:51:54.122Z,98553.69
2023-04-27T12:54:21.250Z,98559.53
2023-04-27T12:56:52.397Z,98553.41
2023-04-27T12:59:19.424Z,98557.69
2023-04-27T13:01:46.464Z,98547.63
2023-04-27T13:04:19.697Z,98542.41
2023-04-27T13:06:47.391Z,98545.63
2023-04-27T13:09:14.411Z,98542.19
2023-04-27T13:11:41.404Z,98540.25
2023-04-27T13:14:12.753Z,98540.03
2023-04-27T13:16:40.475Z,98538.72
2023-04-27T13:19:07.523Z,98538.22
2023-04-27T13:21:34.455Z,98528.88
2023-04-27T13:24:01.430Z,98528.88
2023-04-27T13:26:28.649Z,98535.38
2023-04-27T13:28:55.696Z,98529.88
2023-04-27T13:31:24.153Z,98524.41
2023-04-27T13:33:51.087Z,98522.06
2023-04-27T13:36:18.138Z,98525.44
2023-04-27T13:38:45.782Z,98514.03
2023-04-27T13:41:12.749Z,98511.41
2023-04-27T13:43:39.946Z,98516.88
2023-04-27T13:46:07.582Z,98504.91
2023-04-27T13:48:36.186Z,98509.06
2023-04-27T13:51:03.100Z,98507.25
2023-04-27T13:53:30.073Z,98505.66
2023-04-27T13:55:58.075Z,98513.47
2023-04-27T13:58:27.213Z,98516.34
2023-04-27T14:00:54.669Z,98500.44
2023-04-27T14:03:22.781Z,98499.66
2023-04-27T14:05:51.579Z,98511.88
2023-04-27T14:08:19.219Z,98518.41
2023-04-27T14:10:46.410Z,98510.13
2023-04-27T14:13:13.574Z,98512.72
2023-04-27T14:15:41.186Z,98507.78
2023-04-27T14:18:09.249Z,98503.34
2023-04-27T14:20:37.373Z,98508.03
2023-04-27T14:23:09.187Z,98502.28
2023-04-27T14:25:36.135Z,98512.72
2023-04-27T14:28:07.079Z,98510.63
2023-04-27T14:30:34.748Z,98511.69
2023-04-27T14:33:01.975Z,98509.06
2023-04-27T14:35:28.932Z,98513.22
2023-04-27T14:38:01.763Z,98511.91
2023-04-27T14:40:30.904Z,98512.72
2023-04-27T14:42:58.616Z,98510.88
2023-04-27T14:45:29.217Z,98510.88
2023-04-27T14:47:58.172Z,98512.44
2023-04-27T14:50:25.350Z,98512.44
2023-04-27T14:52:52.518Z,98514.78
2023-04-27T14:55:19.463Z,98509.59
2023-04-27T14:57:48.500Z,98506.72
2023-04-27T15:00:16.415Z,98516.09
2023-04-27T15:02:43.443Z,98518.44
2023-04-27T15:05:10.465Z,98517.38
2023-04-27T15:07:37.703Z,98519.91
2023-04-27T15:10:05.810Z,98522.41
2023-04-27T15:12:32.952Z,98517.66
2023-04-27T15:15:01.333Z,98530.31
2023-04-27T15:17:28.349Z,98524.19
2023-04-27T15:19:55.332Z,98528.75
2023-04-27T15:22:23.626Z,98529.13
2023-04-27T15:24:50.937Z,98523.53
2023-04-27T15:27:18.036Z,98531.53
2023-04-27T15:29:45.019Z,98530.47
2023-04-27T15:32:15.118Z,98537.91
2023-04-27T15:34:44.531Z,98534.59
2023-04-27T15:37:12.134Z,98536.22
2023-04-27T15:39:39.192Z,98534.22
2023-04-27T15:42:06.399Z,98541.50
2023-04-27T15:44:33.332Z,98533.72
2023-04-27T15:47:00.415Z,98543.06
2023-04-27T15:49:30.147Z,98534.47
2023-04-27T15:51:57.215Z,98539.88
2023-04-27T15:54:24.298Z,98553.81
2023-04-27T15:56:51.786Z,98553.47
2023-04-27T15:59:18.709Z,98546.66
2023-04-27T16:01:45.844Z,98558.25
2023-04-27T16:04:12.956Z,98553.81
2023-04-27T16:06:41.629Z,98562.31
2023-04-27T16:09:10.588Z,98568.41
2023-04-27T16:11:38.072Z,98567.75
2023-04-27T16:14:05.029Z,98571.56
2023-04-27T16:16:32.330Z,98578.47
2023-04-27T16:18:59.454Z,98572.94
2023-04-27T16:21:28.013Z,98577.50
2023-04-27T16:23:56.855Z,98577.69
2023-04-27T16:26:24.862Z,98570.34
2023-04-27T16:28:54.432Z,98580.56
2023-04-27T16:31:21.562Z,98589.19
2023-04-27T16:33:49.031Z,98580.72
2023-04-27T16:36:16.306Z,98581.84
2023-04-27T16:38:43.287Z,98589.69
2023-04-27T16:41:11.642Z,98592.09
2023-04-27T16:43:38.734Z,98591.41
2023-04-27T16:46:08.247Z,98594.84
2023-04-27T16:48:35.338Z,98595.13
2023-04-27T16:51:02.499Z,98586.63
2023-04-27T16:53:29.495Z,98598.81
2023-04-27T16:56:00.183Z,98597.81
2023-04-27T16:58:28.921Z,98596.88
2023-04-27T17:00:56.477Z,98603.97
2023-04-27T17:03:23.521Z,98608.94
2023-04-27T17:05:51.291Z,98608.94
2023-04-27T17:08:18.312Z,98611.31
2023-04-27T17:10:45.517Z,98616.28
2023-04-27T17:13:17.628Z,98623.34
2023-04-27T17:15:46.181Z,98615.16
2023-04-27T17:18:13.243Z,98625.84
2023-04-27T17:20:41.687Z,98633.34
2023-04-27T17:23:09.402Z,98628.94
2023-04-27T17:25:36.494Z,98635.41
2023-04-27T17:28:03.828Z,98631.78
2023-04-27T17:30:31.072Z,98636.06
2023-04-27T17:32:59.791Z,98639.16
2023-04-27T17:35:26.949Z,98642.84
2023-04-27T17:37:53.967Z,98648.31
2023-04-27T17:40:22.749Z,98651.22
2023-04-27T17:42:49.786Z,98649.13
2023-04-27T17:45:17.124Z,98658.53
2023-04-27T17:47:44.033Z,98667.59
2023-04-27T17:50:14.687Z,98664.84
2023-04-27T17:52:41.827Z,98681.19
2023-04-27T17:55:08.818Z,98679.69
2023-04-27T17:57:35.930Z,98681.91
2023-04-27T18:00:03.382Z,98684.56
2023-04-27T18:02:36.694Z,98691.56
2023-04-27T18:05:07.090Z,98695.16
2023-04-27T18:07:38.985Z,98701.16
2023-04-27T18:10:07.602Z,98706.75
2023-04-27T18:12:35.198Z,98706.59
2023-04-27T18:15:04.997Z,98716.09
2023-04-27T18:17:33.309Z,98735.72
2023-04-27T18:20:08.895Z,98757.06
2023-04-27T18:22:39.878Z,98756.13
2023-04-27T18:25:08.641Z,98756.13
2023-04-27T18:27:37.523Z,98749.06
2023-04-27T18:30:05.285Z,98755.88
2023-04-27T18:32:34.116Z,98767.31
2023-04-27T18:35:02.338Z,98765.34
2023-04-27T18:37:29.305Z,98767.28
2023-04-27T18:39:57.623Z,98768.88
2023-04-27T18:42:24.658Z,98762.09
2023-04-27T18:44:54.789Z,98752.94
2023-04-27T18:47:21.940Z,98759.22
2023-04-27T18:49:49.075Z,98756.41
2023-04-27T18:52:16.147Z,98766.72
2023-04-27T18:54:43.327Z,98776.56
2023-04-27T18:57:11.693Z,98778.16
2023-04-27T18:59:41.649Z,98776.53
2023-04-27T19:02:08.833Z,98788.41
2023-04-27T19:04:35.946Z,98791.19
2023-04-27T19:07:03.069Z,98792.78
2023-04-27T19:09:30.082Z,98793.22
2023-04-27T19:12:02.872Z,98796.81
2023-04-27T19:14:32.645Z,98796.44
2023-04-27T19:16:59.698Z,98800.50
2023-04-27T19:19:27.791Z,98804.84
2023-04-27T19:21:54.966Z,98806.00
2023-04-27T19:24:21.894Z,98803.69
2023-04-27T19:26:48.980Z,98805.94
2023-04-27T19:29:16.583Z,98813.09
2023-04-27T19:31:45.457Z,98808.56
2023-04-27T19:34:12.469Z,98802.50
2023-04-27T19:36:39.352Z,98805.53
2023-04-27T19:39:06.918Z,98805.19
2023-04-27T19:41:33.850Z,98805.03
2023-04-27T19:44:00.869Z,98801.50
2023-04-27T19:46:27.805Z,98805.50
2023-04-27T19:48:56.114Z,98805.53
2023-04-27T19:51:23.532Z,98808.88
2023-04-27T19:53:50.738Z,98814.03
2023-04-27T19:56:17.788Z,98807.69
2023-04-27T19:58:44.724Z,98817.19
2023-04-27T20:01:13.025Z,98807.56
2023-04-27T20:03:40.704Z,98806.59
2023-04-27T20:06:10.411Z,98792.03
2023-04-27T20:08:37.455Z,98795.41
2023-04-27T20:11:04.361Z,98803.53
2023-04-27T20:13:31.591Z,98808.66
2023-04-27T20:15:59.196Z,98800.94
2023-04-27T20:18:28.458Z,98807.25
2023-04-27T20:20:55.391Z,98815.75
2023-04-27T20:23:23.880Z,98821.66
2023-04-27T20:25:51.524Z,98815.34
2023-04-27T20:28:18.598Z,98830.56
2023-04-27T20:30:45.786Z,98831.72
2023-04-27T20:33:13.911Z,98840.25
2023-04-27T20:35:41.181Z,98844.63
2023-04-27T20:38:08.655Z,98848.56
2023-04-27T20:40:37.809Z,98844.00
2023-04-27T20:43:05.041Z,98849.94
2023-04-27T20:45:32.053Z,98847.34
2023-04-27T20:47:59.156Z,98840.03
2023-04-27T20:50:26.559Z,98830.97
2023-04-27T20:52:54.716Z,98829.78
2023-04-27T20:55:22.221Z,98825.81
2023-04-27T20:57:50.544Z,98826.22
2023-04-27T21:00:18.825Z,98832.72
2023-04-27T21:02:45.939Z,98830.97
2023-04-27T21:05:12.976Z,98837.88
2023-04-27T21:07:39.874Z,98831.94
2023-04-27T21:10:08.064Z,98840.44
2023-04-27T21:12:35.041Z,98852.09
2023-04-27T21:15:03.677Z,98856.25
2023-04-27T21:17:30.777Z,98865.94
2023-04-27T21:19:58.302Z,98865.78
2023-04-27T21:22:25.275Z,98866.78
2023-04-27T21:24:52.708Z,98867.16
2023-04-27T21:27:19.635Z,98863.41
2023-04-27T21:29:46.532Z,98860.63
2023-04-27T21:32:14.803Z,98862.44
2023-04-27T21:34:41.726Z,98852.53
2023-04-27T21:37:08.641Z,98865.75
2023-04-27T21:39:35.868Z,98868.94
2023-04-27T21:42:02.785Z,98873.28
2023-04-27T21:44:29.848Z,98878.00
2023-04-27T21:46:57.188Z,98882.19
2023-04-27T21:49:26.298Z,98890.25
2023-04-27T21:51:53.236Z,98894.41
2023-04-27T21:54:20.171Z,98901.91
2023-04-27T21:56:47.187Z,98918.31
2023-04-27T21:59:14.173Z,98919.72
2023-04-27T22:01:41.189Z,98922.69
2023-04-27T22:04:08.533Z,98925.84
2023-04-27T22:06:38.047Z,98928.41
2023-04-27T22:09:07.803Z,98937.09
2023-04-27T22:11:35.122Z,98927.63
2023-04-27T22:14:02.076Z,98929.19
2023-04-27T22:16:30.238Z,98935.13
2023-04-27T22:18:58.105Z,98927.41
2023-04-27T22:21:25.583Z,98922.84
2023-04-27T22:23:53.905Z,98918.53
2023-04-27T22:26:20.851Z,98929.59
2023-04-27T22:28:47.735Z,98930.56
2023-04-27T22:31:14.736Z,98928.00
2023-04-27T22:33:41.729Z,98936.69
2023-04-27T22:36:09.366Z,98941.81
2023-04-27T22:38:36.630Z,98946.56
2023-04-27T22:41:05.259Z,98955.66
2023-04-27T22:43:32.290Z,98952.31
2023-04-27T22:45:59.212Z,98953.28
2023-04-27T22:48:26.132Z,98950.16
2023-04-27T22:50:53.145Z,98960.59
2023-04-27T22:53:20.105Z,98957.81
2023-04-27T22:55:47.299Z,98954.47
2023-04-27T22:58:15.804Z,98954.84
2023-04-27T23:00:42.815Z,98956.41
2023-04-27T23:03:11.819Z,98954.88
2023-04-27T23:05:39.055Z,98956.44
2023-04-27T23:08:06.780Z,98959.59
2023-04-27T23:10:34.842Z,98958.41
2023-04-27T23:13:04.231Z,98959.78
2023-04-27T23:15:32.667Z,98965.50
2023-04-27T23:17:59.727Z,98965.91
2023-04-27T23:20:28.868Z,98969.47
2023-04-27T23:22:56.230Z,98970.66
2023-04-27T23:25:23.706Z,98967.50
2023-04-27T23:27:52.164Z,98970.47
2023-04-27T23:30:19.976Z,98969.66
2023-04-27T23:32:48.466Z,98980.75
2023-04-27T23:35:15.471Z,98988.06
2023-04-27T23:37:42.642Z,98988.25
2023-04-27T23:40:10.173Z,98994.75
2023-04-27T23:42:37.081Z,98994.00
2023-04-27T23:45:05.047Z,98991.44
2023-04-27T23:47:34.316Z,98983.50
2023-04-27T23:50:02.958Z,98980.34
2023-04-27T23:52:29.921Z,98977.19
2023-04-27T23:54:57.567Z,98981.31
2023-04-27T23:57:24.540Z,98979.75
2023-04-27T23:59:51.615Z,98976.19
